Terminal Aerodrome Forecast
Issued by NWS Glasgow, MT

Home | Current Version | Previous Version | Text Only | Print | Product List | Glossary On
Versions: 1 2 3 4 5 6 7 8 9 10 11 12 13 14 15 16 17 18 19 20 21
000
FTUS45 KGGW 290000 AAB
TAFGGW
TAF AMD
KGGW 290011Z 2900/2924 15007KT 5SM BR SCT007 OVC150
     FM290300 30007KT 3SM BR BKN007 OVC090
     FM290600 32013KT 3SM -PL BKN003 OVC040
     FM291200 33017KT 5SM -SHSN BLSN SCT010 OVC026
     FM291800 32017KT 1/2SM SHSN BLSN BKN023=

USA.gov is the U.S. government's official web portal to all federal, state and local government web resources and services.